createdAt,value
2022-08-18T00:03:00.799Z,100956.13
2022-08-18T00:07:26.784Z,100954.72
2022-08-18T00:11:42.299Z,100962.16
2022-08-18T00:15:55.193Z,100959.13
2022-08-18T00:20:13.029Z,100960.75
2022-08-18T00:24:25.917Z,100962.09
2022-08-18T00:28:37.581Z,100965.41
2022-08-18T00:32:56.030Z,100965.41
2022-08-18T00:37:07.810Z,100957.81
2022-08-18T00:41:20.600Z,100955.97
2022-08-18T00:45:36.685Z,100964.09
2022-08-18T00:49:52.894Z,100952.97
2022-08-18T00:54:07.654Z,100966.63
2022-08-18T00:58:27.403Z,100966.06
2022-08-18T01:02:44.580Z,100967.38
2022-08-18T01:07:05.415Z,100960.34
2022-08-18T01:11:18.110Z,100973.47
2022-08-18T01:15:30.616Z,100971.88
2022-08-18T01:20:00.930Z,100977.84
2022-08-18T01:24:14.749Z,100984.13
2022-08-18T01:28:33.345Z,100981.16
2022-08-18T01:32:48.233Z,100956.47
2022-08-18T01:37:01.231Z,100951.59
2022-08-18T01:41:26.002Z,100978.25
2022-08-18T01:45:42.436Z,100974.53
2022-08-18T01:49:54.277Z,100969.91
2022-08-18T01:54:06.015Z,100989.25
2022-08-18T01:58:17.692Z,100984.06
2022-08-18T02:02:32.895Z,100992.28
2022-08-18T02:06:47.873Z,100980.03
2022-08-18T02:10:59.612Z,100976.78
2022-08-18T02:15:11.870Z,100969.06
2022-08-18T02:19:23.906Z,100969.63
2022-08-18T02:23:36.145Z,100978.91
2022-08-18T02:27:47.999Z,100986.81
2022-08-18T02:31:59.704Z,100977.31
2022-08-18T02:36:12.285Z,100979.16
2022-08-18T02:40:24.072Z,100975.41
2022-08-18T02:44:36.285Z,100991.75
2022-08-18T02:48:49.541Z,100991.53
2022-08-18T02:53:02.544Z,100996.44
2022-08-18T02:57:14.753Z,100997.53
2022-08-18T03:01:29.658Z,100982.28
2022-08-18T03:05:41.411Z,100980.09
2022-08-18T03:09:53.078Z,100978.72
2022-08-18T03:14:05.881Z,100989.84
2022-08-18T03:18:20.649Z,101002.91
2022-08-18T03:22:32.725Z,101001.81
2022-08-18T03:26:45.323Z,100998.56
2022-08-18T03:30:56.997Z,101016.56
2022-08-18T03:35:09.374Z,101020.38
2022-08-18T03:39:23.643Z,100975.97
2022-08-18T03:43:51.349Z,101006.44
2022-08-18T03:48:03.768Z,101002.63
2022-08-18T03:52:15.471Z,101000.50
2022-08-18T03:56:34.487Z,100989.09
2022-08-18T04:00:46.252Z,101004.28
2022-08-18T04:04:58.008Z,101007.84
2022-08-18T04:09:14.033Z,100989.63
2022-08-18T04:13:25.665Z,100990.69
2022-08-18T04:18:06.148Z,100997.50
2022-08-18T04:22:09.441Z,100986.09
2022-08-18T04:26:28.804Z,101001.06
2022-08-18T04:30:40.486Z,100995.34
2022-08-18T04:34:52.433Z,101006.78
2022-08-18T04:39:07.741Z,100978.25
2022-08-18T04:43:19.393Z,101010.63
2022-08-18T04:47:41.944Z,101013.63
2022-08-18T04:52:44.406Z,101028.28
2022-08-18T05:09:01.110Z,100971.34
2022-08-18T05:13:36.194Z,100999.38
2022-08-18T05:18:14.637Z,100998.25
2022-08-18T05:23:34.804Z,101000.97
2022-08-18T05:28:41.246Z,100970.50
2022-08-18T05:33:15.458Z,101008.47
2022-08-18T05:37:36.125Z,100973.09
2022-08-18T05:42:41.033Z,100991.66
2022-08-18T05:47:49.245Z,100995.59
2022-08-18T05:52:30.705Z,100981.03
2022-08-18T06:13:09.555Z,101019.97
2022-08-18T06:18:40.820Z,101046.97
2022-08-18T06:34:33.396Z,101036.72
2022-08-18T06:39:22.873Z,101043.88
2022-08-18T06:44:05.640Z,101035.63
2022-08-18T06:48:40.390Z,101049.09
2022-08-18T06:52:57.531Z,101068.75
2022-08-18T06:57:23.524Z,101078.88
2022-08-18T07:01:35.151Z,101079.63
2022-08-18T07:06:07.021Z,101070.00
2022-08-18T07:10:18.515Z,101069.63
2022-08-18T07:14:30.205Z,101060.69
2022-08-18T07:18:41.871Z,101074.56
2022-08-18T07:22:55.081Z,101077.56
2022-08-18T07:27:11.391Z,101084.88
2022-08-18T07:31:38.255Z,101080.97
2022-08-18T07:35:58.773Z,101063.09
2022-08-18T07:40:32.514Z,101066.34
2022-08-18T07:45:03.902Z,101062.50
2022-08-18T07:49:22.322Z,101071.75
2022-08-18T07:53:37.432Z,101069.41
2022-08-18T07:57:48.991Z,101073.94
2022-08-18T08:02:33.541Z,101080.78
2022-08-18T08:07:20.864Z,101092.19
2022-08-18T08:11:40.318Z,101078.63
2022-08-18T08:16:04.953Z,101071.38
2022-08-18T08:20:33.255Z,101075.84
2022-08-18T08:25:01.295Z,101068.50
2022-08-18T08:29:13.879Z,101078.53
2022-08-18T08:33:37.305Z,101073.41
2022-08-18T08:37:54.724Z,101073.06
2022-08-18T08:42:29.808Z,101071.38
2022-08-18T08:46:55.434Z,101068.94
2022-08-18T08:51:17.581Z,101072.19
2022-08-18T08:55:34.019Z,101076.88
2022-08-18T08:59:48.790Z,101061.59
2022-08-18T09:04:17.431Z,101070.06
2022-08-18T09:08:42.748Z,101080.56
2022-08-18T09:13:33.298Z,101075.47
2022-08-18T09:17:59.514Z,101079.94
2022-08-18T09:22:21.381Z,101080.38
2022-08-18T09:26:52.644Z,101082.66
2022-08-18T09:31:08.566Z,101077.09
2022-08-18T09:35:36.191Z,101078.41
2022-08-18T09:50:04.641Z,101080.25
2022-08-18T09:54:49.808Z,101069.28
2022-08-18T09:59:02.934Z,101057.44
2022-08-18T10:08:01.479Z,101059.53
2022-08-18T10:12:23.449Z,101070.66
2022-08-18T10:17:21.281Z,101063.50
2022-08-18T10:21:56.080Z,101054.31
2022-08-18T10:26:30.321Z,101065.31
2022-08-18T10:35:34.048Z,101059.72
2022-08-18T10:39:50.396Z,101051.41
2022-08-18T10:44:10.601Z,101049.31
2022-08-18T10:48:34.746Z,101056.63
2022-08-18T10:53:24.590Z,101057.31
2022-08-18T10:57:48.108Z,101049.19
2022-08-18T11:02:20.461Z,101055.66
2022-08-18T11:06:43.296Z,101052.00
2022-08-18T11:11:27.725Z,101061.91
2022-08-18T11:22:03.492Z,101075.50
2022-08-18T11:26:39.030Z,101044.88
2022-08-18T11:31:27.477Z,101059.53
2022-08-18T11:35:57.942Z,101023.84
2022-08-18T11:41:02.145Z,101037.31
2022-08-18T11:45:26.296Z,101022.69
2022-08-18T12:31:19.765Z,101023.19
2022-08-18T12:35:41.997Z,101019.78
2022-08-18T12:39:55.680Z,101019.16
2022-08-18T12:48:41.238Z,101016.09
2022-08-18T12:52:54.081Z,101017.72
2022-08-18T12:57:18.237Z,101018.38
2022-08-18T13:01:44.818Z,101017.44
2022-08-18T13:05:56.488Z,101032.06
2022-08-18T13:10:35.778Z,101038.25
2022-08-18T13:14:44.169Z,101041.19
2022-08-18T13:18:56.267Z,101054.50
2022-08-18T13:23:08.612Z,101055.00
2022-08-18T13:27:23.363Z,101059.38
2022-08-18T13:31:35.315Z,101059.72
2022-08-18T13:35:52.123Z,101065.41
2022-08-18T13:40:07.209Z,101068.19
2022-08-18T13:44:22.452Z,101056.66
2022-08-18T13:48:39.575Z,101059.25
2022-08-18T13:52:54.090Z,101053.38
2022-08-18T13:57:06.756Z,101066.34
2022-08-18T14:05:52.870Z,101053.91
2022-08-18T14:10:08.141Z,101056.34
2022-08-18T14:14:25.023Z,101037.28
2022-08-18T14:18:37.306Z,101021.84
2022-08-18T14:23:11.445Z,101027.94
2022-08-18T14:27:35.261Z,101028.75
2022-08-18T14:31:48.942Z,101027.91
2022-08-18T14:36:09.739Z,101003.97
2022-08-18T14:40:21.711Z,101004.72
2022-08-18T14:44:33.418Z,101011.50
2022-08-18T14:48:47.685Z,101014.22
2022-08-18T14:52:59.426Z,101009.31
2022-08-18T14:57:12.166Z,100996.00
2022-08-18T15:01:24.711Z,101000.53
2022-08-18T15:05:38.462Z,101012.72
2022-08-18T15:10:15.240Z,101004.03
2022-08-18T15:14:33.492Z,101001.72
2022-08-18T15:18:46.811Z,100967.28
2022-08-18T15:23:22.830Z,100985.97
2022-08-18T15:27:42.642Z,100991.53
2022-08-18T15:31:57.981Z,100982.09
2022-08-18T15:36:16.194Z,100976.47
2022-08-18T15:40:30.654Z,100999.03
2022-08-18T15:44:47.364Z,100992.38
2022-08-18T15:49:09.568Z,100988.84
2022-08-18T15:53:29.811Z,100994.81
2022-08-18T15:57:41.866Z,101001.47
2022-08-18T16:01:53.583Z,100986.00
2022-08-18T16:06:05.589Z,100991.31
2022-08-18T16:10:20.460Z,100979.66
2022-08-18T16:14:32.101Z,100990.81
2022-08-18T16:18:46.186Z,100994.31
2022-08-18T16:22:58.554Z,100980.19
2022-08-18T16:27:12.086Z,100984.56
2022-08-18T16:31:28.380Z,100993.56
2022-08-18T16:35:40.088Z,100991.13
2022-08-18T16:39:57.010Z,100994.09
2022-08-18T16:44:08.651Z,100986.84
2022-08-18T16:48:21.800Z,100982.53
2022-08-18T16:52:35.349Z,100984.16
2022-08-18T16:56:46.934Z,100988.41
2022-08-18T17:01:19.033Z,100985.94
2022-08-18T17:05:30.806Z,100992.94
2022-08-18T17:09:42.454Z,100982.25
2022-08-18T17:13:57.237Z,100979.81
2022-08-18T17:18:08.928Z,100972.22
2022-08-18T17:22:20.708Z,100980.31
2022-08-18T17:27:03.918Z,100977.38
2022-08-18T17:31:38.481Z,100979.84
2022-08-18T17:35:56.843Z,100983.84
2022-08-18T17:40:16.866Z,100978.16
2022-08-18T17:44:31.429Z,100989.50
2022-08-18T17:48:47.921Z,100962.56
2022-08-18T17:53:07.591Z,100971.59
2022-08-18T17:57:32.449Z,100973.53
2022-08-18T18:01:44.228Z,100957.44
2022-08-18T18:06:11.631Z,100979.13
2022-08-18T18:11:04.785Z,100987.03
2022-08-18T18:15:31.832Z,100972.06
2022-08-18T18:19:49.364Z,100956.97
2022-08-18T18:24:23.671Z,100967.66
2022-08-18T18:28:35.998Z,100936.09
2022-08-18T18:32:48.992Z,100974.00
2022-08-18T18:37:33.073Z,100954.31
2022-08-18T18:41:44.874Z,100956.50
2022-08-18T18:46:29.984Z,100949.44
2022-08-18T18:50:55.966Z,100962.13
2022-08-18T18:55:19.255Z,100963.50
2022-08-18T19:04:27.838Z,100960.06
2022-08-18T19:08:45.363Z,100964.03
2022-08-18T19:13:02.591Z,100961.31
2022-08-18T19:17:27.504Z,100976.56
2022-08-18T19:22:02.456Z,100978.22
2022-08-18T19:26:17.319Z,100979.25
2022-08-18T19:30:30.428Z,100991.66
2022-08-18T19:34:51.683Z,100988.09
2022-08-18T19:39:22.046Z,100991.28
2022-08-18T19:43:41.362Z,100974.50
2022-08-18T19:48:18.502Z,100981.72
2022-08-18T19:52:56.178Z,100992.97
2022-08-18T19:57:29.552Z,100981.19
2022-08-18T20:01:59.750Z,100971.31
2022-08-18T20:06:34.354Z,100985.06
2022-08-18T20:10:46.901Z,100993.28
2022-08-18T20:15:07.521Z,100974.88
2022-08-18T20:19:37.305Z,100996.00
2022-08-18T20:24:13.624Z,101001.00
2022-08-18T20:28:36.204Z,100994.88
2022-08-18T20:33:08.845Z,100986.59
2022-08-18T20:37:25.472Z,101007.69
2022-08-18T20:41:47.140Z,101014.34
2022-08-18T20:46:32.501Z,101014.09
2022-08-18T20:51:03.142Z,101000.88
2022-08-18T20:55:30.648Z,101001.75
2022-08-18T20:59:53.599Z,101003.47
2022-08-18T21:04:05.231Z,100992.84
2022-08-18T21:08:38.039Z,100993.44
2022-08-18T21:12:58.654Z,100978.88
2022-08-18T21:17:15.270Z,101004.22
2022-08-18T21:21:40.615Z,101002.34
2022-08-18T21:25:56.992Z,101004.03
2022-08-18T21:30:28.896Z,101008.97
2022-08-18T21:34:45.167Z,101007.41
2022-08-18T21:39:06.505Z,101013.47
2022-08-18T21:43:37.124Z,101019.81
2022-08-18T21:47:59.221Z,101028.94
2022-08-18T21:52:10.790Z,101036.38
2022-08-18T21:56:31.478Z,101031.81
2022-08-18T22:01:16.876Z,101034.63
2022-08-18T22:05:59.087Z,101034.13
2022-08-18T22:10:41.461Z,101026.22
2022-08-18T22:14:54.443Z,101027.88
2022-08-18T22:19:19.040Z,101031.78
2022-08-18T22:23:58.328Z,101024.16
2022-08-18T22:28:10.125Z,101013.91
2022-08-18T22:32:21.877Z,101025.66
2022-08-18T22:36:42.775Z,101029.22
2022-08-18T22:40:54.320Z,101032.03
2022-08-18T22:45:13.340Z,101033.97
2022-08-18T22:49:25.357Z,101037.25
2022-08-18T22:53:36.949Z,101038.09
2022-08-18T22:57:48.466Z,101026.44
2022-08-18T23:02:00.293Z,101030.00
2022-08-18T23:06:11.874Z,101031.38
2022-08-18T23:10:23.438Z,101039.06
2022-08-18T23:14:35.292Z,101036.13
2022-08-18T23:18:46.843Z,101043.50
2022-08-18T23:22:59.644Z,101035.03
2022-08-18T23:27:11.277Z,101040.25
2022-08-18T23:31:22.842Z,101030.47
2022-08-18T23:35:34.547Z,101036.19
2022-08-18T23:39:48.302Z,101028.63
2022-08-18T23:44:00.153Z,101023.44
2022-08-18T23:48:11.823Z,101030.56
2022-08-18T23:52:23.395Z,101023.50
2022-08-18T23:56:36.517Z,101028.38
